Time;durP1;ratioP1;P1;durP2;ratioP2;P2;SDS_P1;SDS_P2;PMS_P1;PMS_P2;Temp;Humidity;BMP_temperature;BMP_pressure;BME280_temperature;BME280_humidity;BME280_pressure;Samples;Min_cycle;Max_cycle;Signal;HPM_P1;HPM_P2
2022/07/21 00:01:11;;;;;;;7.82;2.63;;;22.10;60.40;;;;;;4996520;28;20022;-78
2022/07/21 00:03:36;;;;;;;7.10;2.83;;;22.00;60.60;;;;;;4996423;28;20022;-78
2022/07/21 00:06:03;;;;;;;7.65;2.83;;;22.00;60.60;;;;;;4995273;28;20034;-78
2022/07/21 00:08:28;;;;;;;5.20;2.53;;;21.90;60.60;;;;;;4996414;28;20576;-78
2022/07/21 00:10:54;;;;;;;6.63;2.85;;;21.80;60.90;;;;;;4996511;28;20030;-78
2022/07/21 00:13:20;;;;;;;4.28;2.45;;;21.80;61.10;;;;;;4995802;28;20057;-78
2022/07/21 00:15:46;;;;;;;6.30;2.70;;;21.70;61.20;;;;;;4996349;28;20089;-78
2022/07/21 00:18:13;;;;;;;6.22;2.60;;;21.60;61.60;;;;;;4995000;28;20031;-78
2022/07/21 00:20:38;;;;;;;7.15;3.00;;;21.50;61.60;;;;;;4995895;28;20035;-79
2022/07/21 00:23:04;;;;;;;4.63;2.83;;;21.50;61.50;;;;;;4995720;28;20025;-79
2022/07/21 00:25:30;;;;;;;6.40;3.10;;;21.50;61.60;;;;;;4996134;28;20034;-79
2022/07/21 00:27:56;;;;;;;5.63;2.60;;;21.50;61.50;;;;;;4994788;28;20034;-78
2022/07/21 00:30:25;;;;;;;4.22;2.45;;;21.50;61.80;;;;;;4995711;28;20030;-78
2022/07/21 00:32:50;;;;;;;7.45;3.25;;;21.40;61.90;;;;;;5011300;28;20026;-78
2022/07/21 00:35:16;;;;;;;8.20;3.13;;;21.30;62.10;;;;;;4995483;28;20033;-78
2022/07/21 00:37:42;;;;;;;8.30;3.35;;;21.30;62.20;;;;;;4994399;28;20033;-78
2022/07/21 00:40:10;;;;;;;4.20;2.70;;;21.30;62.20;;;;;;4995960;28;20041;-78
2022/07/21 00:42:36;;;;;;;8.27;4.05;;;21.30;62.30;;;;;;4993481;28;20057;-78
2022/07/21 00:45:05;;;;;;;6.65;3.20;;;21.20;62.80;;;;;;4995977;28;20109;-78
2022/07/21 00:47:34;;;;;;;6.60;2.95;;;21.10;62.80;;;;;;4995814;28;20030;-79
2022/07/21 00:50:03;;;;;;;4.65;3.05;;;21.00;63.20;;;;;;4995381;28;20093;-78
2022/07/21 00:52:29;;;;;;;6.38;3.00;;;21.10;62.80;;;;;;4996221;28;20105;-78
2022/07/21 00:54:55;;;;;;;6.72;3.08;;;21.00;63.50;;;;;;4995774;28;20061;-79
2022/07/21 00:57:20;;;;;;;8.45;2.88;;;20.90;63.20;;;;;;4995309;28;20493;-79
2022/07/21 00:59:46;;;;;;;7.63;3.42;;;20.80;64.20;;;;;;4995683;28;20030;-79
2022/07/21 01:02:13;;;;;;;5.93;3.38;;;20.80;63.80;;;;;;4995118;28;20027;-79
2022/07/21 01:04:38;;;;;;;8.80;2.63;;;20.80;63.60;;;;;;4995707;28;20045;-78
2022/07/21 01:07:05;;;;;;;10.65;3.55;;;20.80;64.00;;;;;;4995226;28;20400;-79
2022/07/21 01:09:32;;;;;;;11.15;3.25;;;20.80;63.80;;;;;;4995700;28;20062;-78
2022/07/21 01:11:59;;;;;;;7.65;3.25;;;20.80;64.00;;;;;;4995052;28;20073;-79
2022/07/21 01:14:25;;;;;;;4.85;3.20;;;20.80;63.70;;;;;;4994331;28;20035;-79
2022/07/21 01:16:51;;;;;;;7.22;3.15;;;20.80;63.90;;;;;;4995526;28;20389;-79
2022/07/21 01:19:17;;;;;;;8.45;2.80;;;20.80;64.20;;;;;;4994682;28;20137;-78
2022/07/21 01:21:51;;;;;;;8.50;3.00;;;20.70;64.20;;;;;;4995546;28;20061;-79
2022/07/21 01:24:17;;;;;;;4.68;2.78;;;20.80;63.70;;;;;;4993506;28;20034;-79
2022/07/21 01:26:45;;;;;;;6.03;3.55;;;20.70;64.40;;;;;;5013100;28;20037;-78
2022/07/21 01:29:12;;;;;;;6.07;3.50;;;20.70;64.50;;;;;;4998825;28;20022;-78
2022/07/21 01:31:40;;;;;;;4.75;2.97;;;20.80;64.20;;;;;;4995561;28;20037;-79
2022/07/21 01:34:06;;;;;;;8.10;2.85;;;20.70;64.10;;;;;;4998195;28;20030;-78
2022/07/21 01:36:32;;;;;;;5.63;2.80;;;20.70;64.20;;;;;;4997154;28;20031;-78
2022/07/21 01:41:43;;;;;;;8.73;3.40;;;20.60;64.70;;;;;;4998957;28;20528;-78
2022/07/21 01:44:31;;;;;;;8.70;3.25;;;20.50;65.00;;;;;;4999069;28;20030;-78
2022/07/21 01:46:56;;;;;;;5.88;2.92;;;20.50;64.90;;;;;;4998547;28;20034;-78
2022/07/21 01:49:22;;;;;;;10.93;4.03;;;20.40;65.30;;;;;;4997507;28;20045;-78
2022/07/21 01:51:49;;;;;;;9.00;3.35;;;20.40;65.20;;;;;;4999013;28;20023;-78
2022/07/21 01:54:15;;;;;;;6.63;2.72;;;20.40;64.90;;;;;;4998225;28;20034;-78
2022/07/21 01:56:41;;;;;;;6.68;3.63;;;20.40;65.00;;;;;;4998358;28;20732;-78
2022/07/21 01:59:07;;;;;;;5.90;3.53;;;20.40;65.30;;;;;;4998612;28;20221;-78
2022/07/21 02:01:33;;;;;;;5.63;3.10;;;20.50;65.40;;;;;;4998714;28;20034;-79
2022/07/21 02:04:01;;;;;;;8.80;3.20;;;20.50;65.10;;;;;;4998834;28;20066;-78
2022/07/21 02:06:27;;;;;;;8.18;3.00;;;20.60;63.80;;;;;;4998033;28;20516;-78
2022/07/21 02:08:53;;;;;;;6.22;3.55;;;20.50;64.90;;;;;;4998854;28;20033;-78
2022/07/21 02:11:19;;;;;;;7.20;2.92;;;20.40;64.60;;;;;;4997542;28;20026;-78
2022/07/21 02:13:45;;;;;;;8.63;3.20;;;20.30;65.20;;;;;;4998599;28;20085;-78
2022/07/21 02:16:11;;;;;;;6.43;3.15;;;20.30;65.20;;;;;;4998470;28;20050;-78
2022/07/21 02:18:40;;;;;;;10.27;3.60;;;20.30;64.80;;;;;;4997838;28;20161;-78
2022/07/21 02:21:07;;;;;;;8.65;3.80;;;20.30;65.40;;;;;;4998539;28;20023;-79
2022/07/21 02:23:34;;;;;;;6.47;3.30;;;20.30;65.00;;;;;;4998352;28;20034;-78
2022/07/21 02:26:00;;;;;;;5.63;2.88;;;20.30;64.50;;;;;;4997823;28;20034;-78
2022/07/21 02:28:26;;;;;;;4.18;2.95;;;20.30;65.40;;;;;;4996366;28;20072;-78
2022/07/21 02:30:52;;;;;;;6.55;3.35;;;20.10;65.60;;;;;;4997850;28;20026;-78
2022/07/21 02:33:18;;;;;;;13.15;3.60;;;20.10;65.50;;;;;;4998292;28;20026;-79
2022/07/21 02:35:44;;;;;;;6.00;3.28;;;20.00;65.60;;;;;;5013528;28;20984;-78
2022/07/21 02:38:10;;;;;;;5.68;3.15;;;20.00;65.80;;;;;;5013159;28;20038;-78
2022/07/21 02:40:36;;;;;;;7.57;3.50;;;20.00;66.20;;;;;;4997539;28;20023;-78
2022/07/21 02:43:03;;;;;;;5.22;3.60;;;19.90;66.40;;;;;;5013191;28;20026;-78
2022/07/21 02:45:29;;;;;;;5.35;3.45;;;19.90;66.30;;;;;;4996946;28;20030;-78
2022/07/21 02:48:03;;;;;;;5.90;3.58;;;19.80;66.40;;;;;;4996218;28;20125;-78
2022/07/21 02:50:32;;;;;;;6.68;2.75;;;19.80;66.50;;;;;;4997526;28;20081;-78
2022/07/21 02:53:12;;;;;;;7.45;3.58;;;19.80;67.20;;;;;;4997690;28;20026;-78
2022/07/21 02:55:38;;;;;;;6.50;3.00;;;19.80;67.20;;;;;;4993387;28;20127;-78
2022/07/21 02:58:33;;;;;;;7.25;3.42;;;19.70;67.50;;;;;;4982035;28;20040;-78
2022/07/21 03:01:05;;;;;;;6.10;2.92;;;19.70;66.70;;;;;;5000238;28;20121;-78
2022/07/21 03:03:33;;;;;;;5.28;3.70;;;19.80;66.30;;;;;;5012857;28;20073;-78
2022/07/21 03:05:59;;;;;;;11.23;3.70;;;19.70;66.40;;;;;;5012568;28;20440;-78
2022/07/21 03:08:26;;;;;;;7.13;3.17;;;19.80;66.50;;;;;;4996441;28;20453;-78
2022/07/21 03:10:52;;;;;;;9.93;3.53;;;19.70;67.10;;;;;;5012898;28;20440;-78
2022/07/21 03:13:18;;;;;;;6.78;3.60;;;19.60;66.80;;;;;;4997060;28;20084;-78
2022/07/21 03:15:43;;;;;;;8.95;3.15;;;19.60;67.00;;;;;;4997681;28;20057;-78
2022/07/21 03:18:09;;;;;;;5.18;3.20;;;19.60;67.20;;;;;;4995429;28;20057;-78
2022/07/21 03:20:39;;;;;;;5.60;3.45;;;19.60;67.50;;;;;;4997374;28;20041;-78
2022/07/21 03:23:05;;;;;;;9.82;3.65;;;19.50;67.30;;;;;;4997323;28;20493;-78
2022/07/21 03:25:31;;;;;;;5.32;3.60;;;19.60;67.20;;;;;;4996394;28;20030;-78
2022/07/21 03:27:58;;;;;;;7.30;3.35;;;19.60;67.10;;;;;;4996497;28;20026;-78
2022/07/21 03:30:24;;;;;;;6.20;3.60;;;19.60;66.90;;;;;;5012373;28;20054;-78
2022/07/21 03:32:51;;;;;;;9.70;4.07;;;19.60;66.60;;;;;;4996721;28;20034;-78
2022/07/21 03:35:17;;;;;;;11.40;4.07;;;19.60;66.70;;;;;;4997039;28;20747;-78
2022/07/21 03:37:45;;;;;;;7.22;2.90;;;19.50;67.30;;;;;;4997201;28;20043;-78
2022/07/21 03:40:14;;;;;;;6.03;2.95;;;19.30;67.90;;;;;;4996489;28;20356;-78
2022/07/21 03:42:40;;;;;;;5.82;3.22;;;19.30;67.90;;;;;;5010332;28;20085;-78
2022/07/21 03:45:06;;;;;;;7.25;3.40;;;19.30;68.30;;;;;;4996281;28;20041;-78
2022/07/21 03:47:32;;;;;;;6.80;3.33;;;19.20;68.40;;;;;;4996214;28;20042;-78
2022/07/21 03:50:01;;;;;;;7.00;3.47;;;19.20;68.60;;;;;;4996495;28;20105;-78
2022/07/21 03:52:26;;;;;;;7.85;3.47;;;19.20;68.40;;;;;;4996725;28;20034;-78
2022/07/21 03:55:07;;;;;;;5.78;3.17;;;19.20;68.60;;;;;;4996756;28;20029;-78
2022/07/21 03:57:38;;;;;;;8.30;3.90;;;19.20;68.50;;;;;;4996269;28;20092;-78
2022/07/21 04:00:07;;;;;;;7.93;3.35;;;19.20;68.30;;;;;;4996554;28;20014;-78
2022/07/21 04:02:32;;;;;;;6.15;3.42;;;19.20;68.80;;;;;;4996012;28;20046;-78
2022/07/21 04:04:58;;;;;;;5.00;3.70;;;19.20;68.90;;;;;;4996057;28;20034;-78
2022/07/21 04:07:24;;;;;;;6.25;3.28;;;19.30;68.60;;;;;;4996051;28;20114;-78
2022/07/21 04:09:49;;;;;;;7.80;3.05;;;19.30;68.80;;;;;;4996533;28;20022;-78
2022/07/21 04:12:35;;;;;;;6.70;3.33;;;19.30;68.60;;;;;;4996226;28;20096;-78
2022/07/21 04:15:01;;;;;;;5.18;3.25;;;19.40;68.30;;;;;;4994692;28;20117;-78
2022/07/21 04:17:27;;;;;;;7.40;3.90;;;19.40;68.20;;;;;;4994644;28;20064;-78
2022/07/21 04:19:52;;;;;;;10.15;3.75;;;19.50;67.30;;;;;;4995754;28;20082;-78
2022/07/21 04:22:18;;;;;;;11.70;3.80;;;19.50;67.40;;;;;;5007656;28;20406;-78
2022/07/21 04:24:44;;;;;;;8.82;3.88;;;19.50;67.60;;;;;;4995140;28;20695;-78
2022/07/21 04:27:09;;;;;;;6.28;3.47;;;19.40;67.80;;;;;;4994428;28;20038;-78
2022/07/21 04:29:35;;;;;;;7.70;3.45;;;19.40;68.10;;;;;;4996243;28;20052;-78
2022/07/21 04:32:01;;;;;;;10.35;3.95;;;19.40;67.80;;;;;;4996019;28;20105;-78
2022/07/21 04:34:28;;;;;;;6.43;3.55;;;19.30;68.70;;;;;;4995508;28;20029;-78
2022/07/21 04:36:54;;;;;;;8.27;3.80;;;19.30;68.40;;;;;;4995588;28;20031;-78
2022/07/21 04:39:19;;;;;;;7.35;3.53;;;19.30;68.40;;;;;;4995940;28;20036;-78
2022/07/21 04:41:45;;;;;;;5.15;3.63;;;19.30;68.50;;;;;;4995245;28;20081;-78
2022/07/21 04:44:11;;;;;;;11.65;4.28;;;19.40;68.10;;;;;;4996015;28;20048;-78
2022/07/21 04:46:39;;;;;;;10.25;4.93;;;19.40;67.90;;;;;;4995245;28;20042;-78
2022/07/21 04:49:04;;;;;;;7.85;3.90;;;19.30;68.40;;;;;;4994908;28;20504;-78
2022/07/21 04:51:30;;;;;;;7.15;4.43;;;19.30;68.40;;;;;;4995326;28;20404;-78
2022/07/21 04:53:56;;;;;;;6.35;3.28;;;19.30;68.30;;;;;;4995152;28;20026;-78
2022/07/21 04:56:21;;;;;;;8.07;3.72;;;19.30;68.40;;;;;;4995661;28;20026;-78
2022/07/21 04:58:48;;;;;;;6.13;3.70;;;19.20;69.20;;;;;;4995274;28;20041;-78
2022/07/21 05:01:13;;;;;;;8.55;3.80;;;19.20;69.10;;;;;;4997841;28;20057;-78
2022/07/21 05:03:39;;;;;;;6.13;3.65;;;19.30;68.60;;;;;;4999339;28;20030;-78
2022/07/21 05:06:05;;;;;;;7.57;3.08;;;19.20;68.50;;;;;;4998491;28;20037;-78
2022/07/21 05:08:30;;;;;;;7.22;4.20;;;19.20;69.20;;;;;;4999198;28;20035;-78
2022/07/21 05:10:56;;;;;;;8.23;3.72;;;19.30;68.80;;;;;;4999484;28;20113;-78
2022/07/21 05:13:22;;;;;;;7.32;3.75;;;19.30;68.20;;;;;;4999366;28;20098;-78
2022/07/21 05:15:47;;;;;;;6.88;3.47;;;19.40;68.10;;;;;;4997915;28;20109;-78
2022/07/21 05:18:13;;;;;;;6.35;3.63;;;19.40;67.90;;;;;;4999431;28;20093;-78
2022/07/21 05:20:39;;;;;;;7.32;4.13;;;19.50;67.80;;;;;;4999612;28;20030;-78
2022/07/21 05:23:04;;;;;;;8.23;4.25;;;19.40;68.30;;;;;;4998425;28;20113;-78
2022/07/21 05:25:31;;;;;;;7.47;3.85;;;19.30;68.70;;;;;;5011052;28;20033;-78
2022/07/21 05:27:57;;;;;;;7.88;3.90;;;19.30;68.60;;;;;;4979246;28;20023;-78
2022/07/21 05:30:23;;;;;;;4.95;3.70;;;19.30;68.70;;;;;;4979860;28;20126;-79
2022/07/21 05:32:49;;;;;;;9.00;4.55;;;19.30;68.00;;;;;;4992345;28;20028;-78
2022/07/21 05:35:15;;;;;;;7.40;3.85;;;19.30;67.90;;;;;;4999335;28;20030;-79
2022/07/21 05:37:42;;;;;;;9.07;4.20;;;19.30;68.20;;;;;;4998692;28;20127;-79
2022/07/21 05:40:09;;;;;;;11.13;4.22;;;19.40;67.80;;;;;;4999260;28;20809;-79
2022/07/21 05:42:35;;;;;;;7.30;3.65;;;19.30;67.80;;;;;;4999080;28;20022;-78
2022/07/21 05:45:00;;;;;;;7.80;4.55;;;19.30;68.20;;;;;;4999126;28;20085;-79
2022/07/21 05:47:26;;;;;;;6.82;4.18;;;19.30;68.30;;;;;;4997836;28;20069;-78
2022/07/21 05:49:52;;;;;;;6.75;3.95;;;19.30;68.10;;;;;;4997838;28;20061;-78
2022/07/21 05:52:17;;;;;;;6.28;3.65;;;19.40;68.20;;;;;;4999042;28;20493;-78
2022/07/21 05:54:43;;;;;;;5.53;3.67;;;19.30;68.50;;;;;;4998348;28;20497;-78
2022/07/21 05:57:09;;;;;;;6.53;4.07;;;19.30;68.40;;;;;;4998796;28;20027;-79
2022/07/21 05:59:35;;;;;;;11.48;4.30;;;19.40;68.20;;;;;;4997210;28;20058;-78
2022/07/21 06:02:00;;;;;;;6.45;4.20;;;19.40;68.50;;;;;;4998584;28;20461;-78
2022/07/21 06:04:26;;;;;;;7.57;4.32;;;19.50;68.50;;;;;;4998285;28;20108;-78
2022/07/21 06:06:52;;;;;;;10.40;4.50;;;19.60;68.70;;;;;;4998021;28;20045;-78
2022/07/21 06:09:19;;;;;;;9.18;3.97;;;19.70;68.60;;;;;;4998607;28;20030;-78
2022/07/21 06:11:44;;;;;;;8.50;3.90;;;19.80;67.90;;;;;;4997493;28;20058;-78
2022/07/21 06:14:10;;;;;;;6.45;3.90;;;20.00;67.20;;;;;;5013847;28;20843;-79
2022/07/21 06:16:36;;;;;;;8.32;3.47;;;20.10;66.60;;;;;;4998581;28;20109;-78
2022/07/21 06:19:02;;;;;;;7.90;3.42;;;20.20;66.60;;;;;;4997854;28;20042;-78
2022/07/21 06:21:28;;;;;;;8.98;2.95;;;20.20;66.00;;;;;;4997411;28;20022;-79
2022/07/21 06:23:54;;;;;;;4.90;3.70;;;20.30;66.20;;;;;;4996780;28;20033;-78
2022/07/21 06:26:19;;;;;;;10.10;3.85;;;20.30;65.90;;;;;;4997769;28;20070;-78
2022/07/21 06:28:45;;;;;;;8.25;3.72;;;20.30;66.00;;;;;;4997589;28;20031;-78
2022/07/21 06:31:11;;;;;;;9.68;3.80;;;20.40;66.00;;;;;;4998296;28;20398;-79
2022/07/21 06:33:37;;;;;;;7.80;4.18;;;20.40;66.50;;;;;;4996887;28;20037;-78
2022/07/21 06:36:02;;;;;;;6.13;3.47;;;20.60;65.80;;;;;;4996413;28;20070;-79
2022/07/21 06:38:28;;;;;;;7.40;3.08;;;20.70;65.10;;;;;;4998048;28;20033;-79
2022/07/21 06:40:54;;;;;;;6.38;3.13;;;20.80;64.90;;;;;;4997505;28;20134;-78
2022/07/21 06:43:20;;;;;;;7.13;3.55;;;20.80;64.80;;;;;;4997523;28;20145;-78
2022/07/21 06:45:45;;;;;;;7.75;2.92;;;20.80;64.90;;;;;;4997896;28;20085;-78
2022/07/21 06:48:12;;;;;;;7.90;3.75;;;20.90;64.30;;;;;;4998149;28;20583;-79
2022/07/21 06:50:38;;;;;;;8.23;3.70;;;21.10;64.40;;;;;;4998039;28;20477;-79
2022/07/21 06:53:05;;;;;;;7.32;3.35;;;21.10;64.00;;;;;;4993008;28;20461;-79
2022/07/21 06:55:31;;;;;;;9.30;3.92;;;21.20;63.70;;;;;;4993242;28;20027;-79
2022/07/21 06:57:57;;;;;;;6.18;3.35;;;21.30;63.30;;;;;;4978227;28;20042;-78
2022/07/21 07:00:23;;;;;;;6.00;3.67;;;21.30;63.90;;;;;;4983486;28;20022;-78
2022/07/21 07:02:49;;;;;;;4.82;3.15;;;21.20;64.40;;;;;;4997664;28;20405;-79
2022/07/21 07:05:15;;;;;;;7.72;3.28;;;21.30;64.20;;;;;;4996553;28;20022;-79
2022/07/21 07:07:40;;;;;;;8.35;3.30;;;21.30;63.90;;;;;;4997039;28;20049;-79
2022/07/21 07:10:07;;;;;;;6.70;3.30;;;21.20;63.60;;;;;;5012905;28;20393;-78
2022/07/21 07:12:32;;;;;;;5.45;2.80;;;21.30;63.20;;;;;;4996881;28;20026;-79
2022/07/21 07:14:58;;;;;;;8.07;3.25;;;21.60;62.60;;;;;;4996815;28;20097;-78
2022/07/21 07:17:24;;;;;;;5.82;3.13;;;21.80;62.40;;;;;;5011883;28;20042;-79
2022/07/21 07:19:50;;;;;;;5.18;2.88;;;22.00;61.70;;;;;;5011578;28;20026;-79
2022/07/21 07:22:15;;;;;;;8.32;2.70;;;22.00;61.70;;;;;;5009390;28;20045;-79
2022/07/21 07:24:41;;;;;;;7.93;2.85;;;22.30;60.80;;;;;;4996465;28;20034;-79
2022/07/21 07:27:07;;;;;;;7.03;3.00;;;22.30;60.90;;;;;;5002325;28;20432;-79
2022/07/21 07:29:33;;;;;;;7.32;2.92;;;22.30;61.40;;;;;;4996703;28;20536;-79
2022/07/21 07:31:59;;;;;;;7.00;3.03;;;22.40;61.10;;;;;;4997229;28;20034;-79
2022/07/21 07:34:25;;;;;;;5.72;2.28;;;23.00;59.80;;;;;;4996551;28;20026;-79
2022/07/21 07:36:50;;;;;;;7.93;2.63;;;23.30;58.30;;;;;;4996991;28;20045;-78
2022/07/21 07:39:16;;;;;;;4.03;2.42;;;23.50;58.10;;;;;;4995934;28;20088;-79
2022/07/21 07:41:43;;;;;;;6.20;2.88;;;23.60;57.40;;;;;;4996904;28;20640;-78
2022/07/21 07:44:09;;;;;;;5.53;2.85;;;23.60;57.50;;;;;;4996453;28;20509;-78
2022/07/21 07:46:35;;;;;;;6.18;2.78;;;23.80;56.70;;;;;;4997024;28;20037;-79
2022/07/21 07:49:00;;;;;;;3.17;2.35;;;24.00;56.10;;;;;;4996252;28;20097;-79
2022/07/21 07:51:26;;;;;;;5.45;2.35;;;24.10;55.80;;;;;;5012071;28;20037;-79
2022/07/21 07:53:52;;;;;;;6.47;2.40;;;24.30;55.50;;;;;;5012177;28;20053;-79
2022/07/21 07:56:18;;;;;;;4.10;2.38;;;24.70;54.70;;;;;;4996267;28;20030;-79
2022/07/21 07:58:44;;;;;;;6.22;2.28;;;26.60;50.60;;;;;;4994766;28;20030;-80
2022/07/21 08:01:09;;;;;;;3.72;1.77;;;29.30;45.20;;;;;;4996595;28;20030;-80
2022/07/21 08:03:36;;;;;;;4.93;2.50;;;30.90;41.50;;;;;;4996171;28;20616;-80
2022/07/21 08:06:06;;;;;;;5.30;2.50;;;30.00;41.00;;;;;;4996540;28;20105;-79
2022/07/21 08:08:32;;;;;;;4.75;3.08;;;29.30;42.40;;;;;;5011300;28;20026;-79
2022/07/21 08:10:58;;;;;;;6.05;3.55;;;28.10;44.30;;;;;;4996473;28;20493;-79
2022/07/21 08:13:24;;;;;;;3.60;2.55;;;27.30;46.40;;;;;;4996287;28;20022;-79
2022/07/21 08:15:50;;;;;;;6.00;2.78;;;27.90;45.90;;;;;;4995799;28;20050;-80
2022/07/21 08:18:16;;;;;;;4.22;2.65;;;31.00;40.20;;;;;;4996144;28;20100;-79
2022/07/21 08:20:43;;;;;;;4.53;2.65;;;30.10;40.20;;;;;;4996318;28;20025;-79
2022/07/21 08:23:09;;;;;;;5.28;2.65;;;31.00;38.40;;;;;;5011673;28;20054;-79
2022/07/21 08:25:34;;;;;;;4.88;2.50;;;31.00;38.90;;;;;;4995140;28;20397;-79
2022/07/21 08:28:00;;;;;;;4.22;2.13;;;29.90;39.40;;;;;;4995496;28;20117;-79
2022/07/21 08:30:26;;;;;;;5.78;2.60;;;29.40;41.00;;;;;;4996100;28;20030;-79
2022/07/21 08:32:52;;;;;;;3.75;2.50;;;29.20;41.10;;;;;;4995436;28;20105;-80
2022/07/21 08:35:17;;;;;;;4.88;2.50;;;31.90;37.60;;;;;;4995581;28;20026;-80
2022/07/21 08:37:58;;;;;;;4.75;2.25;;;33.40;34.40;;;;;;4995022;28;20030;-80
2022/07/21 08:40:26;;;;;;;3.38;2.20;;;33.90;34.00;;;;;;4995466;28;20105;-80
2022/07/21 08:42:54;;;;;;;4.07;2.00;;;35.40;31.00;;;;;;4996255;28;20378;-80
2022/07/21 08:45:22;;;;;;;5.57;2.40;;;36.10;30.80;;;;;;4995987;28;20096;-80
2022/07/21 08:47:53;;;;;;;7.10;2.38;;;36.90;28.50;;;;;;4995908;28;20487;-80
2022/07/21 08:50:19;;;;;;;4.18;1.83;;;37.80;28.10;;;;;;4995521;28;20063;-80
2022/07/21 08:52:45;;;;;;;5.43;2.20;;;38.60;27.50;;;;;;4995508;28;20113;-80
2022/07/21 08:55:11;;;;;;;4.25;2.15;;;38.50;27.30;;;;;;4995959;28;20049;-80
2022/07/21 08:57:41;;;;;;;3.78;2.15;;;39.00;25.50;;;;;;4995161;28;20042;-80
2022/07/21 09:00:08;;;;;;;3.30;2.00;;;37.30;27.70;;;;;;4995720;28;20022;-79
2022/07/21 09:02:35;;;;;;;5.15;2.53;;;35.30;30.10;;;;;;4995390;28;20114;-79
2022/07/21 09:05:01;;;;;;;5.95;2.35;;;33.40;32.60;;;;;;4994751;28;20031;-80
2022/07/21 09:07:27;;;;;;;6.03;2.50;;;32.00;34.70;;;;;;4994351;28;20037;-79
2022/07/21 09:09:59;;;;;;;7.05;2.53;;;30.70;36.70;;;;;;4998378;28;20252;-79
2022/07/21 09:12:26;;;;;;;5.43;2.50;;;30.00;37.70;;;;;;4995488;28;20081;-79
2022/07/21 09:14:51;;;;;;;3.75;2.17;;;29.40;38.90;;;;;;4995608;28;20097;-79
2022/07/21 09:17:18;;;;;;;5.07;2.03;;;30.60;37.70;;;;;;4995080;28;20618;-79
2022/07/21 09:19:46;;;;;;;4.07;2.25;;;31.20;36.20;;;;;;4995778;28;20057;-79
2022/07/21 09:22:16;;;;;;;4.68;2.15;;;30.90;36.10;;;;;;5010671;28;20066;-79
2022/07/21 09:24:49;;;;;;;4.18;2.30;;;30.20;37.50;;;;;;4995140;28;20031;-79
2022/07/21 09:27:17;;;;;;;3.42;1.85;;;29.50;38.70;;;;;;4995317;28;20046;-79
2022/07/21 09:29:59;;;;;;;5.35;2.20;;;30.50;37.60;;;;;;4994512;28;20018;-79
2022/07/21 09:32:30;;;;;;;4.35;1.90;;;29.80;38.10;;;;;;4995566;28;20105;-79
2022/07/21 09:35:00;;;;;;;4.15;2.15;;;29.20;39.40;;;;;;4995451;28;20015;-79
2022/07/21 09:37:26;;;;;;;4.25;2.67;;;29.10;40.00;;;;;;4995060;28;20034;-79
2022/07/21 09:39:54;;;;;;;3.97;2.25;;;29.00;40.30;;;;;;4995376;28;20030;-79
2022/07/21 09:42:30;;;;;;;4.10;2.42;;;30.60;38.30;;;;;;4993769;28;20045;-80
2022/07/21 09:45:04;;;;;;;5.05;1.90;;;32.50;35.10;;;;;;4995394;28;20023;-80
2022/07/21 09:47:31;;;;;;;5.95;2.30;;;32.50;35.30;;;;;;4997079;28;20084;-79
2022/07/21 09:49:58;;;;;;;4.60;2.35;;;32.00;35.90;;;;;;4999028;28;20493;-79
2022/07/21 09:52:31;;;;;;;4.40;2.38;;;31.70;36.20;;;;;;4998541;28;20045;-79
2022/07/21 09:55:06;;;;;;;3.80;2.22;;;32.10;35.60;;;;;;4998983;28;20400;-79
2022/07/21 09:57:32;;;;;;;3.92;1.75;;;33.30;33.60;;;;;;4979597;28;20038;-79
2022/07/21 09:59:58;;;;;;;3.20;2.00;;;33.10;33.50;;;;;;4981780;28;20024;-79
2022/07/21 10:02:28;;;;;;;5.65;1.67;;;32.50;33.90;;;;;;4997740;28;20096;-79
2022/07/21 10:04:59;;;;;;;4.75;2.17;;;31.80;34.80;;;;;;4998403;28;20030;-79
2022/07/21 10:07:27;;;;;;;3.95;1.75;;;31.10;35.90;;;;;;5013094;28;20033;-79
2022/07/21 10:09:53;;;;;;;5.60;1.92;;;30.30;37.30;;;;;;4998468;28;20027;-79
2022/07/21 10:12:20;;;;;;;5.63;1.80;;;29.90;38.80;;;;;;4998491;28;20031;-79
2022/07/21 10:14:46;;;;;;;5.15;1.88;;;29.80;39.10;;;;;;4997906;28;20042;-79
2022/07/21 10:17:16;;;;;;;5.32;2.60;;;29.90;39.20;;;;;;4998409;28;20019;-79
2022/07/21 10:19:49;;;;;;;6.38;2.22;;;30.10;37.90;;;;;;4998799;28;20042;-79
2022/07/21 10:22:55;;;;;;;8.10;2.38;;;30.20;38.20;;;;;;4998066;28;20512;-79
2022/07/21 10:25:22;;;;;;;5.40;2.35;;;30.00;37.80;;;;;;4998331;28;20040;-79
2022/07/21 10:28:22;;;;;;;7.70;2.55;;;29.90;38.40;;;;;;4997071;28;20023;-79
2022/07/21 10:30:53;;;;;;;5.32;2.70;;;29.90;37.30;;;;;;5007370;28;20038;-79
2022/07/21 10:33:20;;;;;;;5.30;2.10;;;30.20;37.40;;;;;;4996658;28;20022;-79
2022/07/21 10:35:50;;;;;;;4.13;2.33;;;30.90;36.30;;;;;;4998103;28;20045;-79
2022/07/21 10:38:33;;;;;;;3.72;2.15;;;30.90;37.00;;;;;;4996365;28;20129;-79
2022/07/21 10:41:00;;;;;;;6.22;2.47;;;30.80;36.80;;;;;;4998029;28;20081;-79
2022/07/21 10:43:26;;;;;;;5.22;2.22;;;30.60;37.30;;;;;;4997725;28;20069;-79
2022/07/21 10:45:53;;;;;;;2.33;1.70;;;30.50;36.30;;;;;;4997585;28;20054;-79
2022/07/21 10:48:38;;;;;;;5.82;2.22;;;30.30;37.50;;;;;;4997474;28;20101;-79
2022/07/21 10:51:08;;;;;;;4.38;1.92;;;30.30;37.60;;;;;;4997701;28;20402;-79
2022/07/21 10:53:34;;;;;;;5.95;2.45;;;30.40;37.30;;;;;;5012548;28;20473;-79
2022/07/21 10:55:59;;;;;;;3.40;2.30;;;30.30;37.50;;;;;;4997896;28;20034;-79
2022/07/21 10:58:48;;;;;;;3.47;1.92;;;30.30;36.70;;;;;;4997767;28;20031;-79
2022/07/21 11:01:25;;;;;;;4.80;2.28;;;30.30;37.10;;;;;;4997313;28;20051;-79
2022/07/21 11:04:16;;;;;;;4.68;2.40;;;30.00;36.70;;;;;;4997131;28;20065;-79
2022/07/21 11:06:42;;;;;;;3.72;2.40;;;30.20;37.10;;;;;;4997202;28;20485;-79
2022/07/21 11:09:16;;;;;;;3.67;2.17;;;30.30;37.00;;;;;;4997549;28;20030;-79
2022/07/21 11:12:00;;;;;;;3.88;2.00;;;30.10;36.00;;;;;;5008862;28;20035;-79
2022/07/21 11:14:49;;;;;;;5.68;2.45;;;29.80;37.40;;;;;;4978252;28;20121;-79
2022/07/21 11:17:28;;;;;;;4.20;2.30;;;29.80;36.70;;;;;;4997249;28;20022;-79
2022/07/21 11:19:54;;;;;;;3.80;2.17;;;29.70;37.10;;;;;;4996078;28;20035;-79
2022/07/21 11:22:22;;;;;;;4.63;2.40;;;29.40;38.00;;;;;;4995767;28;20032;-79
2022/07/21 11:24:57;;;;;;;4.38;1.95;;;29.10;38.60;;;;;;4996704;28;20109;-79
2022/07/21 11:27:26;;;;;;;4.20;2.25;;;28.80;39.00;;;;;;4997140;28;20030;-78
2022/07/21 11:29:55;;;;;;;4.75;2.15;;;28.70;39.10;;;;;;4996689;28;20117;-79
2022/07/21 11:32:21;;;;;;;4.78;2.45;;;28.50;40.40;;;;;;4997212;28;20461;-79
2022/07/21 11:34:49;;;;;;;5.15;2.53;;;29.00;40.70;;;;;;4997137;28;20037;-79
2022/07/21 11:37:37;;;;;;;5.32;2.15;;;29.30;39.30;;;;;;4997017;28;20056;-79
2022/07/21 11:40:08;;;;;;;4.13;2.40;;;29.40;38.70;;;;;;5011603;28;20093;-79
2022/07/21 11:42:35;;;;;;;3.08;2.33;;;29.30;37.80;;;;;;4996227;28;20065;-79
2022/07/21 11:45:01;;;;;;;3.85;1.90;;;29.40;38.30;;;;;;4997058;28;20030;-79
2022/07/21 11:47:27;;;;;;;3.80;2.40;;;29.20;38.10;;;;;;4996727;28;20085;-79
2022/07/21 11:49:55;;;;;;;2.78;1.95;;;28.90;37.70;;;;;;4996305;28;20023;-79
2022/07/21 11:52:32;;;;;;;3.30;2.25;;;29.20;37.90;;;;;;4996791;28;20022;-79
2022/07/21 11:54:59;;;;;;;4.13;2.17;;;29.40;39.00;;;;;;4996722;28;20031;-79
2022/07/21 11:57:26;;;;;;;4.90;2.58;;;29.30;38.60;;;;;;4996064;28;20026;-79
2022/07/21 11:59:53;;;;;;;4.80;2.60;;;29.60;37.50;;;;;;4994667;28;20130;-79
2022/07/21 12:02:29;;;;;;;4.10;2.55;;;29.90;37.50;;;;;;4996554;28;20034;-79
2022/07/21 12:05:03;;;;;;;4.65;1.85;;;30.20;36.70;;;;;;5011913;28;20030;-79
2022/07/21 12:07:39;;;;;;;4.00;2.10;;;30.30;37.40;;;;;;4996385;28;20022;-79
2022/07/21 12:10:11;;;;;;;5.18;2.42;;;30.40;36.40;;;;;;4996126;28;20053;-79
2022/07/21 12:12:40;;;;;;;4.45;2.08;;;30.50;36.70;;;;;;4996300;28;20019;-79
2022/07/21 12:15:31;;;;;;;5.57;2.13;;;30.60;36.30;;;;;;5011025;28;20097;-79
2022/07/21 12:18:01;;;;;;;2.47;1.73;;;30.50;35.90;;;;;;4995795;28;20041;-79
2022/07/21 12:20:35;;;;;;;3.83;2.28;;;30.30;35.30;;;;;;4994590;28;20519;-78
2022/07/21 12:23:16;;;;;;;4.40;1.98;;;30.40;35.60;;;;;;4996245;28;20022;-79
2022/07/21 12:25:42;;;;;;;4.40;2.05;;;30.50;35.20;;;;;;4994804;28;20496;-79
2022/07/21 12:28:08;;;;;;;4.80;2.03;;;30.30;36.20;;;;;;4995902;28;20038;-79
2022/07/21 12:30:51;;;;;;;3.38;1.95;;;30.20;35.60;;;;;;4996084;28;20105;-79
2022/07/21 12:33:20;;;;;;;3.40;1.65;;;29.80;35.60;;;;;;4995146;28;20026;-78
2022/07/21 12:36:07;;;;;;;5.22;2.30;;;29.70;35.70;;;;;;4996127;28;20026;-78
2022/07/21 12:38:51;;;;;;;4.93;2.08;;;29.60;34.90;;;;;;5010451;28;20034;-78
2022/07/21 12:41:19;;;;;;;3.33;1.90;;;29.70;35.80;;;;;;4995976;28;20038;-78
2022/07/21 12:43:59;;;;;;;3.13;1.65;;;29.70;36.60;;;;;;4995988;28;20030;-79
2022/07/21 12:46:29;;;;;;;;;;;29.70;36.20;;;;;;4994594;28;20034;-79
2022/07/21 12:49:10;;;;;;;5.60;2.17;;;29.60;35.00;;;;;;4994828;28;19955;-79
2022/07/21 12:51:36;;;;;;;3.15;1.73;;;29.70;35.50;;;;;;4993418;28;20045;-78
2022/07/21 12:54:03;;;;;;;3.22;2.10;;;29.70;35.90;;;;;;4995883;28;20030;-78